Time;durP1;ratioP1;P1;durP2;ratioP2;P2;SDS_P1;SDS_P2;PMS_P1;PMS_P2;Temp;Humidity;BMP_temperature;BMP_pressure;BME280_temperature;BME280_humidity;BME280_pressure;Samples;Min_cycle;Max_cycle;Signal;HPM_P1;HPM_P2
2023/05/26 00:00:03;;;;;;;15.30;14.00;;;;;;;18.01;69.72;100460.98;107957;1254;72726;-80
2023/05/26 00:02:31;;;;;;;14.30;12.90;;;;;;;17.83;69.97;100457.96;108133;1254;71374;-80
2023/05/26 00:05:01;;;;;;;13.80;12.60;;;;;;;17.75;70.33;100455.27;108100;1254;61666;-80
2023/05/26 00:07:30;;;;;;;14.20;13.00;;;;;;;17.68;70.38;100457.88;107946;1254;61206;-81
2023/05/26 00:09:57;;;;;;;13.50;12.40;;;;;;;17.57;70.48;100455.88;108098;1254;74681;-81
2023/05/26 00:12:25;;;;;;;13.70;12.40;;;;;;;17.45;70.64;100458.09;108041;1257;72805;-81
2023/05/26 00:14:53;;;;;;;11.80;10.70;;;;;;;17.32;70.97;100459.61;107946;1257;72709;-81
2023/05/26 00:17:24;;;;;;;11.60;10.50;;;;;;;17.15;71.23;100456.48;107964;1257;61684;-80
2023/05/26 00:19:52;;;;;;;11.70;10.50;;;;;;;17.04;71.37;100457.85;107978;1256;59493;-81
2023/05/26 00:22:20;;;;;;;10.60;9.70;;;;;;;16.99;71.68;100454.71;107997;1256;73461;-81
2023/05/26 00:24:47;;;;;;;10.20;9.10;;;;;;;16.97;71.83;100456.92;108008;1257;72777;-81
2023/05/26 00:27:15;;;;;;;10.80;9.80;;;;;;;17.02;71.98;100452.11;108066;1256;71097;-81
2023/05/26 00:29:42;;;;;;;10.30;9.30;;;;;;;17.07;71.93;100454.39;107886;1256;61664;-81
2023/05/26 00:32:10;;;;;;;10.60;9.60;;;;;;;17.09;71.84;100452.34;108089;1254;61115;-81
2023/05/26 00:34:38;;;;;;;9.90;9.00;;;;;;;17.10;71.94;100451.57;107926;1254;74696;-81
2023/05/26 00:37:06;;;;;;;10.60;9.40;;;;;;;17.13;71.88;100457.55;108134;1254;72716;-81
2023/05/26 00:39:35;;;;;;;11.30;9.60;;;;;;;17.14;71.83;100457.65;107839;1257;72670;-81
2023/05/26 00:42:03;;;;;;;9.70;8.80;;;;;;;17.15;71.73;100462.59;107915;1254;61259;-82
2023/05/26 00:44:31;;;;;;;10.20;9.20;;;;;;;17.08;71.62;100462.55;108029;1254;61119;-79
2023/05/26 00:46:58;;;;;;;10.10;9.10;;;;;;;16.93;71.59;100473.14;108056;1254;72542;-80
2023/05/26 00:49:26;;;;;;;11.80;10.60;;;;;;;16.76;71.83;100475.31;107994;1254;72745;-80
2023/05/26 00:51:54;;;;;;;13.30;12.00;;;;;;;16.58;72.26;100470.40;107875;1254;72664;-80
2023/05/26 00:54:22;;;;;;;12.20;10.70;;;;;;;16.51;72.60;100475.38;107860;1256;61641;-80
2023/05/26 00:56:51;;;;;;;13.70;12.40;;;;;;;16.44;72.91;100465.27;108020;1254;60997;-80
2023/05/26 00:59:19;;;;;;;13.70;12.30;;;;;;;16.39;73.18;100460.94;107699;1255;73445;-80
2023/05/26 01:01:49;;;;;;;13.10;11.80;;;;;;;16.42;73.32;100466.70;108030;1255;71435;-80
2023/05/26 01:04:17;;;;;;;13.90;12.60;;;;;;;16.44;73.31;100476.48;107850;1254;72716;-80
2023/05/26 01:06:45;;;;;;;14.60;13.30;;;;;;;16.38;73.41;100468.71;108056;1254;61152;-80
2023/05/26 01:09:15;;;;;;;14.40;13.00;;;;;;;16.39;73.55;100466.12;108028;1254;61222;-80
2023/05/26 01:12:05;;;;;;;14.30;12.90;;;;;;;16.43;73.62;100469.38;107890;1256;73448;-80
2023/05/26 01:14:54;;;;;;;14.70;13.20;;;;;;;16.45;73.50;100469.02;107842;1256;72761;-80
2023/05/26 01:17:33;;;;;;;14.60;13.10;;;;;;;16.51;73.71;100463.73;108039;1258;72692;-80
2023/05/26 01:20:26;;;;;;;14.30;12.90;;;;;;;16.58;73.70;100461.55;107935;1257;61148;-79
2023/05/26 01:23:06;;;;;;;15.10;13.40;;;;;;;16.66;73.60;100462.42;108001;1254;59230;-80
2023/05/26 01:26:06;;;;;;;15.00;13.60;;;;;;;16.71;73.55;100462.44;107886;1255;74701;-80
2023/05/26 01:28:33;;;;;;;15.00;13.10;;;;;;;16.74;73.60;100465.03;108023;1254;72754;-80
2023/05/26 01:31:01;;;;;;;15.50;14.00;;;;;;;16.77;73.87;100466.89;107868;1254;72108;-79
2023/05/26 01:33:29;;;;;;;14.90;13.10;;;;;;;16.82;74.18;100468.13;107997;1256;61636;-79
2023/05/26 01:35:56;;;;;;;15.60;14.00;;;;;;;16.88;74.26;100469.36;108029;1254;61717;-80
2023/05/26 01:38:24;;;;;;;14.90;13.40;;;;;;;16.94;74.27;100467.46;107964;1256;74623;-80
2023/05/26 01:40:55;;;;;;;15.90;14.10;;;;;;;16.98;74.44;100469.85;107992;1256;71403;-80
2023/05/26 01:43:26;;;;;;;14.80;13.30;;;;;;;16.98;74.50;100469.36;108036;1254;72379;-80
2023/05/26 01:46:07;;;;;;;15.20;13.70;;;;;;;16.99;74.69;100466.15;107849;1262;61718;-81
2023/05/26 01:48:35;;;;;;;13.50;12.20;;;;;;;17.00;75.03;100467.15;108040;1254;61217;-80
2023/05/26 01:51:03;;;;;;;15.00;13.60;;;;;;;17.04;75.25;100464.33;108060;1255;73401;-80
2023/05/26 01:53:31;;;;;;;14.70;13.10;;;;;;;17.10;75.44;100462.80;108111;1256;71148;-84
2023/05/26 01:55:59;;;;;;;13.90;12.50;;;;;;;17.15;75.59;100467.93;108021;1256;72469;-82
2023/05/26 01:58:27;;;;;;;12.90;11.70;;;;;;;17.19;75.76;100465.30;107780;1258;60409;-82
2023/05/26 02:00:54;;;;;;;13.10;11.80;;;;;;;17.20;75.73;100462.73;107821;1254;61158;-80
2023/05/26 02:03:25;;;;;;;15.20;13.00;;;;;;;17.21;75.75;100464.34;107859;1254;76820;-80
2023/05/26 02:05:53;;;;;;;14.40;12.90;;;;;;;17.24;75.79;100466.93;107981;1254;71455;-80
2023/05/26 02:08:22;;;;;;;14.00;12.70;;;;;;;17.29;75.80;100468.36;107890;1254;72666;-80
2023/05/26 02:10:50;;;;;;;13.60;12.30;;;;;;;17.36;75.92;100463.19;108000;1254;61247;-80
2023/05/26 02:13:18;;;;;;;13.60;12.40;;;;;;;17.41;75.79;100459.37;108092;1254;61200;-80
2023/05/26 02:15:46;;;;;;;13.20;11.90;;;;;;;17.45;75.67;100465.43;108113;1254;74844;-80
2023/05/26 02:18:15;;;;;;;13.50;12.10;;;;;;;17.50;75.68;100467.95;108047;1254;72923;-81
2023/05/26 02:20:43;;;;;;;14.10;12.60;;;;;;;17.56;75.54;100471.17;107907;1254;72136;-81
2023/05/26 02:23:10;;;;;;;14.00;12.20;;;;;;;17.61;75.62;100469.12;107906;1254;61955;-80
2023/05/26 02:25:38;;;;;;;13.30;11.40;;;;;;;17.66;75.62;100474.73;108068;1254;61147;-80
2023/05/26 02:28:06;;;;;;;13.30;12.00;;;;;;;17.71;75.57;100472.56;108119;1255;74689;-81
2023/05/26 02:30:33;;;;;;;12.80;11.40;;;;;;;17.75;75.56;100474.35;108042;1254;72724;-81
2023/05/26 02:33:01;;;;;;;13.80;12.40;;;;;;;17.79;75.40;100475.67;107887;1260;70747;-81
2023/05/26 02:35:29;;;;;;;13.80;12.30;;;;;;;17.80;75.29;100476.57;108048;1254;61147;-80
2023/05/26 02:37:56;;;;;;;15.20;13.70;;;;;;;17.78;75.25;100474.71;107927;1254;61220;-81
2023/05/26 02:40:25;;;;;;;13.40;12.00;;;;;;;17.76;75.13;100476.12;108073;1254;72847;-80
2023/05/26 02:42:53;;;;;;;13.50;11.80;;;;;;;17.76;75.19;100473.58;108047;1254;72766;-80
2023/05/26 02:45:20;;;;;;;13.00;11.70;;;;;;;17.77;75.40;100473.79;106202;1254;2370148;-80
2023/05/26 02:47:48;;;;;;;12.50;11.30;;;;;;;17.80;75.48;100469.86;108001;1259;61681;-80
2023/05/26 02:50:17;;;;;;;14.00;12.00;;;;;;;17.84;75.48;100473.98;107984;1256;59230;-81
2023/05/26 02:52:45;;;;;;;14.10;12.60;;;;;;;17.89;75.67;100471.02;107923;1257;74263;-81
2023/05/26 02:55:13;;;;;;;14.00;11.90;;;;;;;17.92;75.65;100470.39;107887;1254;71151;-81
2023/05/26 02:57:41;;;;;;;12.40;11.20;;;;;;;17.95;75.58;100477.63;107997;1254;71250;-80
2023/05/26 03:00:12;;;;;;;12.40;11.20;;;;;;;17.98;75.54;100475.80;108028;1257;61119;-81
2023/05/26 03:02:40;;;;;;;12.80;11.50;;;;;;;18.04;75.59;100475.77;107919;1254;61111;-80
2023/05/26 03:05:08;;;;;;;11.70;10.50;;;;;;;18.10;75.65;100477.30;107804;1254;74707;-79
2023/05/26 03:07:35;;;;;;;12.30;11.10;;;;;;;18.17;75.60;100478.64;107921;1254;72725;-79
2023/05/26 03:10:04;;;;;;;13.10;11.80;;;;;;;18.25;75.60;100480.31;107970;1256;73140;-80
2023/05/26 03:12:31;;;;;;;12.40;10.90;;;;;;;18.32;75.39;100481.36;108089;1254;60519;-80
2023/05/26 03:14:59;;;;;;;13.30;11.40;;;;;;;18.39;75.13;100483.15;107873;1254;61128;-80
2023/05/26 03:17:29;;;;;;;13.60;12.20;;;;;;;18.43;74.92;100485.30;108012;1254;73388;-80
2023/05/26 03:19:57;;;;;;;13.20;11.80;;;;;;;18.48;74.64;100483.71;108024;1254;72822;-80
2023/05/26 03:22:25;;;;;;;12.90;11.60;;;;;;;18.54;74.52;100483.52;108064;1254;72705;-80
2023/05/26 03:25:10;;;;;;;14.20;12.10;;;;;;;18.62;74.20;100478.42;108161;1254;61173;-81
2023/05/26 03:27:42;;;;;;;12.70;11.40;;;;;;;18.70;73.96;100482.11;108107;1254;61218;-81
2023/05/26 03:30:10;;;;;;;13.20;11.90;;;;;;;18.78;73.71;100483.14;108096;1254;74791;-81
2023/05/26 03:32:41;;;;;;;13.30;12.00;;;;;;;18.87;73.52;100487.98;108098;1255;71103;-80
2023/05/26 03:35:09;;;;;;;13.20;11.80;;;;;;;18.91;73.27;100486.11;108132;1254;72728;-79
2023/05/26 03:37:37;;;;;;;12.40;11.30;;;;;;;18.97;73.26;100488.23;107973;1254;60420;-79
2023/05/26 03:40:05;;;;;;;13.20;11.90;;;;;;;19.04;73.11;100485.82;108096;1254;61153;-79
2023/05/26 03:42:34;;;;;;;13.40;12.10;;;;;;;19.12;73.08;100486.70;108143;1254;74729;-80
2023/05/26 03:45:02;;;;;;;12.00;10.90;;;;;;;19.22;73.00;100488.00;107870;1254;72738;-80
2023/05/26 03:47:30;;;;;;;13.30;11.20;;;;;;;19.30;72.92;100486.63;107814;1261;72686;-80
2023/05/26 03:50:00;;;;;;;12.90;11.60;;;;;;;19.37;72.91;100486.20;108060;1254;61315;-80
2023/05/26 03:52:29;;;;;;;12.20;11.00;;;;;;;19.41;72.80;100486.70;108125;1254;61190;-81
2023/05/26 03:54:57;;;;;;;13.30;11.90;;;;;;;19.45;72.83;100484.41;108012;1254;73449;-80
2023/05/26 03:57:25;;;;;;;14.30;12.20;;;;;;;19.52;72.66;100486.93;108072;1254;71632;-80
2023/05/26 03:59:53;;;;;;;13.00;11.60;;;;;;;19.62;72.86;100491.00;108037;1254;71345;-80
2023/05/26 04:02:21;;;;;;;13.10;11.80;;;;;;;19.73;72.68;100490.70;107926;1257;60981;-80
2023/05/26 04:04:49;;;;;;;13.40;12.10;;;;;;;19.81;72.57;100491.39;107909;1254;61279;-81
2023/05/26 04:07:17;;;;;;;14.10;12.50;;;;;;;19.93;72.39;100489.42;108000;1254;74601;-80
2023/05/26 04:09:44;;;;;;;14.30;12.30;;;;;;;20.06;72.32;100489.95;108054;1254;73418;-80
2023/05/26 04:12:12;;;;;;;13.10;11.50;;;;;;;20.17;71.85;100487.59;107885;1254;71397;-80
2023/05/26 04:14:42;;;;;;;15.10;12.10;;;;;;;20.29;71.54;100491.86;108005;1254;61329;-80
2023/05/26 04:17:12;;;;;;;13.70;12.10;;;;;;;20.40;71.25;100489.76;108043;1254;61073;-80
2023/05/26 04:19:39;;;;;;;12.70;11.50;;;;;;;20.53;70.77;100491.33;107878;1254;73372;-81
2023/05/26 04:22:07;;;;;;;13.70;12.30;;;;;;;20.63;70.07;100495.47;108032;1254;71550;-80
2023/05/26 04:24:35;;;;;;;13.00;11.80;;;;;;;20.74;69.86;100493.91;107913;1257;72977;-80
2023/05/26 04:27:03;;;;;;;13.20;11.90;;;;;;;20.88;69.41;100496.13;108088;1254;61137;-81
2023/05/26 04:29:52;;;;;;;12.60;11.40;;;;;;;21.02;68.94;100499.73;107966;1254;61145;-80
2023/05/26 04:32:37;;;;;;;15.00;12.70;;;;;;;21.12;68.27;100501.29;107956;1257;74694;-80
2023/05/26 04:35:19;;;;;;;15.10;13.10;;;;;;;21.23;67.55;100501.67;107993;1254;70456;-80
2023/05/26 04:37:50;;;;;;;14.80;13.10;;;;;;;21.34;67.04;100505.85;108027;1257;73000;-81
2023/05/26 04:40:19;;;;;;;16.30;14.00;;;;;;;21.44;66.29;100502.73;108019;1256;61821;-82
2023/05/26 04:42:48;;;;;;;15.30;13.80;;;;;;;21.53;65.65;100502.30;107969;1254;61140;-79
2023/05/26 04:45:16;;;;;;;15.40;13.90;;;;;;;21.61;64.64;100505.22;107918;1254;74656;-80
2023/05/26 04:47:49;;;;;;;15.20;13.30;;;;;;;21.64;63.46;100504.88;107855;1257;72680;-80
2023/05/26 04:50:17;;;;;;;17.50;14.20;;;;;;;21.67;62.66;100503.58;107920;1256;72757;-80
2023/05/26 04:52:45;;;;;;;16.00;14.20;;;;;;;21.71;62.34;100504.20;107834;1256;61787;-81
2023/05/26 04:55:13;;;;;;;15.90;14.00;;;;;;;21.77;61.97;100499.99;107822;1255;61144;-80
2023/05/26 04:57:41;;;;;;;16.20;14.50;;;;;;;21.87;61.68;100501.73;108043;1256;73523;-81
2023/05/26 05:00:13;;;;;;;17.30;13.90;;;;;;;21.95;61.10;100506.14;108005;1254;71583;-82
2023/05/26 05:02:42;;;;;;;13.90;12.60;;;;;;;22.03;60.48;100504.65;108156;1254;71134;-81
2023/05/26 05:05:16;;;;;;;13.90;12.40;;;;;;;22.11;59.95;100502.58;107975;1259;60850;-82
2023/05/26 05:07:44;;;;;;;12.40;11.10;;;;;;;22.21;59.17;100505.45;107877;1254;60017;-83
2023/05/26 05:10:12;;;;;;;14.60;12.30;;;;;;;22.30;58.42;100509.48;107857;1254;75322;-80
2023/05/26 05:12:41;;;;;;;12.10;10.90;;;;;;;22.40;57.89;100515.09;108052;1257;71552;-81
2023/05/26 05:15:10;;;;;;;10.00;9.00;;;;;;;22.52;57.09;100516.35;107734;1257;70740;-81
2023/05/26 05:17:39;;;;;;;10.30;9.20;;;;;;;22.62;55.83;100517.09;107889;1255;61202;-80
2023/05/26 05:20:07;;;;;;;13.10;9.30;;;;;;;22.72;55.36;100517.95;107843;1256;60098;-82
2023/05/26 05:22:45;;;;;;;12.90;9.00;;;;;;;22.85;55.07;100523.80;108018;1254;74662;-81
2023/05/26 05:25:14;;;;;;;11.30;8.50;;;;;;;22.99;54.73;100525.23;108014;1254;72490;-80
2023/05/26 05:27:43;;;;;;;10.40;9.20;;;;;;;23.12;54.31;100522.33;108120;1256;71897;-81
2023/05/26 05:30:12;;;;;;;8.70;7.90;;;;;;;23.26;53.98;100518.00;107981;1254;61240;-81
2023/05/26 05:32:40;;;;;;;10.60;7.70;;;;;;;23.38;53.08;100516.80;108022;1256;61266;-82
2023/05/26 05:35:10;;;;;;;9.10;8.00;;;;;;;23.50;52.42;100514.89;108007;1254;74645;-80
2023/05/26 05:37:38;;;;;;;8.90;7.80;;;;;;;23.60;51.85;100516.29;108230;1254;72449;-80
2023/05/26 05:40:06;;;;;;;9.20;7.50;;;;;;;23.69;51.23;100517.10;107934;1256;72700;-80
2023/05/26 05:42:34;;;;;;;9.30;7.80;;;;;;;23.80;51.13;100513.37;107937;1257;61835;-80
2023/05/26 05:45:04;;;;;;;8.50;7.30;;;;;;;23.90;50.18;100518.65;108055;1254;61161;-83
2023/05/26 05:48:11;;;;;;;8.60;7.60;;;;;;;24.04;49.90;100511.23;107412;1267;74717;-80
2023/05/26 05:50:49;;;;;;;11.30;7.60;;;;;;;24.17;49.62;100509.98;107328;1262;71137;-81
2023/05/26 05:53:16;;;;;;;8.80;7.90;;;;;;;24.30;49.52;100510.95;107704;1256;72773;-81
2023/05/26 05:55:46;;;;;;;8.00;7.20;;;;;;;24.41;49.19;100510.71;107853;1257;60566;-81
2023/05/26 05:58:14;;;;;;;7.90;7.10;;;;;;;24.48;48.73;100514.95;107969;1254;61145;-80
2023/05/26 06:00:42;;;;;;;8.70;7.40;;;;;;;24.56;48.55;100514.16;108015;1254;74672;-81
2023/05/26 06:03:10;;;;;;;8.80;6.60;;;;;;;24.67;48.18;100513.33;107994;1257;71661;-81
2023/05/26 06:05:39;;;;;;;9.40;7.20;;;;;;;24.80;47.80;100506.20;108003;1254;73258;-80
2023/05/26 06:08:07;;;;;;;7.10;6.40;;;;;;;24.90;46.92;100503.94;107843;1254;61248;-79
2023/05/26 06:10:35;;;;;;;7.10;6.40;;;;;;;24.99;46.99;100502.38;100708;1256;10002865;-81
2023/05/26 06:13:03;;;;;;;8.50;6.90;;;;;;;25.12;46.56;100508.20;107748;1258;73659;-80
2023/05/26 06:15:31;;;;;;;10.30;6.50;;;;;;;25.24;46.03;100509.98;107817;1257;61292;-80
2023/05/26 06:17:58;;;;;;;9.10;6.20;;;;;;;25.36;45.41;100512.17;107665;1258;61125;-81
2023/05/26 06:20:27;;;;;;;6.90;6.20;;;;;;;25.47;45.18;100512.88;107867;1259;72576;-81
2023/05/26 06:22:56;;;;;;;8.10;6.50;;;;;;;25.60;45.17;100515.41;107839;1257;72950;-81
2023/05/26 06:25:23;;;;;;;7.80;6.40;;;;;;;25.73;45.01;100522.95;107778;1259;72701;-82
2023/05/26 06:27:51;;;;;;;9.00;6.70;;;;;;;25.84;44.91;100517.96;107747;1260;60522;-81
2023/05/26 06:30:19;;;;;;;7.80;6.40;;;;;;;25.95;44.11;100516.60;107839;1260;61167;-82
2023/05/26 06:32:49;;;;;;;8.40;5.70;;;;;;;26.06;43.69;100517.02;107667;1257;74456;-82
2023/05/26 06:35:18;;;;;;;9.70;6.10;;;;;;;26.11;42.47;100515.33;107774;1257;73952;-82
2023/05/26 06:37:45;;;;;;;7.20;5.60;;;;;;;26.14;42.62;100514.45;107835;1257;70994;-81
2023/05/26 06:40:13;;;;;;;25.80;9.30;;;;;;;26.22;42.46;100513.48;107730;1257;61020;-81
2023/05/26 06:42:41;;;;;;;13.30;6.60;;;;;;;26.35;42.15;100509.80;107661;1257;61181;-81
2023/05/26 06:45:09;;;;;;;8.50;5.80;;;;;;;26.50;41.67;100514.63;107626;1257;74698;-81
2023/05/26 06:47:37;;;;;;;5.50;4.80;;;;;;;26.71;40.42;100518.73;107865;1257;72504;-81
2023/05/26 06:50:25;;;;;;;7.70;4.30;;;;;;;26.77;39.47;100521.33;107797;1257;72719;-81
2023/05/26 06:52:57;;;;;;;11.00;4.70;;;;;;;26.85;38.51;100521.38;107857;1257;61118;-82
2023/05/26 06:55:24;;;;;;;9.00;5.30;;;;;;;26.97;38.00;100518.81;107844;1257;61089;-81
2023/05/26 06:57:52;;;;;;;5.70;4.70;;;;;;;27.06;37.94;100520.90;107787;1257;76859;-81
2023/05/26 07:00:21;;;;;;;8.20;5.00;;;;;;;27.14;37.57;100519.45;107780;1257;72603;-79
2023/05/26 07:02:50;;;;;;;5.80;4.50;;;;;;;27.21;38.05;100522.24;107572;1257;71039;-82
2023/05/26 07:05:26;;;;;;;6.10;4.50;;;;;;;27.36;37.83;100522.52;107761;1257;61209;-83
2023/05/26 07:07:53;;;;;;;5.00;3.80;;;;;;;27.51;37.31;100524.28;107627;1258;61299;-83
2023/05/26 07:10:21;;;;;;;7.70;3.90;;;;;;;27.66;35.89;100518.89;107846;1258;73746;-82
2023/05/26 07:12:49;;;;;;;46.50;11.50;;;;;;;27.76;34.86;100520.84;107690;1257;72476;-81
2023/05/26 07:15:25;;;;;;;649.40;97.50;;;;;;;27.80;34.06;100522.06;107705;1257;70538;-81
2023/05/26 07:17:53;;;;;;;84.90;17.30;;;;;;;27.80;34.49;100520.64;107593;1257;61288;-81
2023/05/26 07:20:20;;;;;;;8.50;4.30;;;;;;;27.83;33.91;100521.70;107606;1257;61247;-81
2023/05/26 07:22:48;;;;;;;23.40;6.80;;;;;;;27.81;33.41;100523.48;107828;1257;64458;-81
2023/05/26 07:25:20;;;;;;;13.70;5.70;;;;;;;27.80;33.25;100523.70;107601;1257;72911;-82
2023/05/26 07:27:48;;;;;;;34.10;7.40;;;;;;;27.90;33.18;100522.64;107723;1259;72728;-82
2023/05/26 07:30:17;;;;;;;7.90;3.80;;;;;;;27.91;33.27;100522.04;107613;1257;61109;-81
2023/05/26 07:33:20;;;;;;;66.10;10.80;;;;;;;28.00;33.72;100521.18;107670;1257;60096;-82
2023/05/26 07:35:48;;;;;;;5.90;3.80;;;;;;;28.14;33.66;100514.42;107714;1257;74023;-82
2023/05/26 07:38:15;;;;;;;5.30;3.70;;;;;;;28.21;32.76;100515.75;107700;1259;64002;-81
2023/05/26 07:40:43;;;;;;;5.40;3.30;;;;;;;28.31;32.71;100514.81;107747;1258;63776;-81
2023/05/26 07:43:12;;;;;;;11.70;5.00;;;;;;;28.45;31.63;100514.66;107746;1259;61149;-83
2023/05/26 07:45:39;;;;;;;4.80;3.40;;;;;;;28.54;31.63;100517.08;107783;1259;61101;-81
2023/05/26 07:48:07;;;;;;;13.30;4.20;;;;;;;28.61;31.92;100515.82;107728;1259;65868;-82
2023/05/26 07:50:34;;;;;;;5.50;3.30;;;;;;;28.72;31.47;100514.73;107714;1257;63911;-82
2023/05/26 07:53:02;;;;;;;4.40;3.70;;;;;;;28.83;31.16;100511.73;107780;1259;64158;-83
2023/05/26 07:55:30;;;;;;;9.20;3.70;;;;;;;28.94;30.83;100505.44;107723;1259;61384;-82
2023/05/26 07:57:57;;;;;;;13.50;3.40;;;;;;;29.02;30.41;100507.64;107872;1259;58987;-82
2023/05/26 08:00:25;;;;;;;5.90;3.20;;;;;;;29.08;30.45;100511.67;107777;1259;65974;-82
2023/05/26 08:02:53;;;;;;;5.10;3.00;;;;;;;29.17;30.22;100507.88;107798;1259;62825;-82
2023/05/26 08:05:21;;;;;;;5.70;3.50;;;;;;;29.24;29.79;100507.77;107840;1262;63878;-82
2023/05/26 08:07:48;;;;;;;24.80;5.60;;;;;;;29.32;30.01;100509.15;107748;1257;61232;-81
2023/05/26 08:10:16;;;;;;;5.90;3.10;;;;;;;29.43;29.10;100508.25;107658;1259;60385;-81
2023/05/26 08:12:44;;;;;;;5.10;3.10;;;;;;;29.31;28.54;100508.03;107611;1259;65871;-83
2023/05/26 08:15:13;;;;;;;8.50;3.20;;;;;;;29.12;28.46;100507.39;107720;1259;63771;-81
2023/05/26 08:17:43;;;;;;;13.10;3.60;;;;;;;29.05;29.39;100501.05;107742;1257;63756;-81
2023/05/26 08:20:11;;;;;;;3.50;2.70;;;;;;;29.14;29.30;100497.96;107710;1257;61375;-82
2023/05/26 08:22:38;;;;;;;5.10;3.20;;;;;;;29.31;29.08;100496.48;107849;1257;61109;-81
2023/05/26 08:25:06;;;;;;;6.40;3.40;;;;;;;29.49;29.00;100499.78;107787;1257;65867;-81
2023/05/26 08:27:34;;;;;;;4.90;3.10;;;;;;;29.64;29.40;100501.27;107786;1262;62522;-82
2023/05/26 08:30:02;;;;;;;3.90;2.90;;;;;;;29.79;28.63;100497.86;107685;1257;63810;-82
2023/05/26 08:32:30;;;;;;;4.90;3.10;;;;;;;29.88;28.10;100491.13;107824;1257;61259;-81
2023/05/26 08:34:58;;;;;;;4.00;3.20;;;;;;;29.91;28.08;100491.35;107733;1257;61162;-81
2023/05/26 08:37:25;;;;;;;5.50;3.20;;;;;;;29.91;28.36;100489.32;107883;1257;64529;-81
2023/05/26 08:39:53;;;;;;;5.10;3.20;;;;;;;29.78;28.15;100492.35;107883;1257;63757;-82
2023/05/26 08:42:21;;;;;;;6.40;3.20;;;;;;;29.60;28.63;100492.13;107843;1261;63723;-81
2023/05/26 08:45:00;;;;;;;5.00;2.80;;;;;;;29.32;28.14;100486.81;107839;1257;61315;-81
2023/05/26 08:47:27;;;;;;;5.20;2.90;;;;;;;29.04;28.73;100485.55;107879;1257;61321;-81
2023/05/26 08:50:02;;;;;;;5.10;3.20;;;;;;;28.85;29.17;100484.64;107718;1257;64510;-83
2023/05/26 08:52:29;;;;;;;5.70;3.60;;;;;;;28.67;29.69;100483.50;107867;1257;63775;-81
2023/05/26 08:54:57;;;;;;;5.60;3.30;;;;;;;28.53;29.79;100485.28;107858;1257;63762;-80
2023/05/26 08:57:26;;;;;;;5.90;3.50;;;;;;;28.44;29.48;100484.98;107697;1257;61253;-81
2023/05/26 08:59:53;;;;;;;4.30;3.00;;;;;;;28.36;28.60;100483.31;107628;1258;61134;-81
2023/05/26 09:02:21;;;;;;;3.90;3.10;;;;;;;28.28;28.76;100487.64;107739;1260;73411;-82
2023/05/26 09:04:51;;;;;;;31.70;6.20;;;;;;;28.22;28.46;100489.09;107740;1259;71977;-82
2023/05/26 09:07:19;;;;;;;4.80;3.00;;;;;;;28.14;27.84;100492.77;107669;1259;64437;-82
2023/05/26 09:09:56;;;;;;;6.10;3.20;;;;;;;28.06;28.02;100495.98;107687;1259;61254;-82
2023/05/26 09:12:30;;;;;;;4.90;3.30;;;;;;;28.03;28.22;100500.27;107705;1257;61279;-81
2023/05/26 09:14:57;;;;;;;4.90;3.60;;;;;;;28.02;28.91;100505.21;107812;1258;64502;-82
2023/05/26 09:17:25;;;;;;;5.60;3.50;;;;;;;27.99;29.99;100507.61;107632;1259;63821;-82
2023/05/26 09:19:53;;;;;;;10.50;4.20;;;;;;;27.87;30.66;100508.17;107472;1263;63772;-82
2023/05/26 09:22:22;;;;;;;5.30;3.60;;;;;;;27.65;31.41;100502.27;107357;1259;61160;-81
2023/05/26 09:24:50;;;;;;;5.50;3.70;;;;;;;27.44;30.96;100502.77;107511;1259;61176;-82
2023/05/26 09:27:19;;;;;;;13.00;4.40;;;;;;;27.27;30.86;100499.52;107772;1259;74674;-82
2023/05/26 09:29:51;;;;;;;6.20;3.90;;;;;;;27.20;31.52;100494.96;107739;1259;71219;-84
2023/05/26 09:32:19;;;;;;;6.60;3.70;;;;;;;27.18;31.47;100486.38;107683;1258;72504;-81
2023/05/26 09:34:50;;;;;;;15.30;5.00;;;;;;;27.20;31.91;100485.32;107664;1257;61245;-82
2023/05/26 09:37:17;;;;;;;4.30;3.50;;;;;;;27.27;31.93;100478.36;107763;1257;61098;-83
2023/05/26 09:39:45;;;;;;;5.60;3.90;;;;;;;27.38;32.35;100481.72;107759;1257;75142;-83
2023/05/26 09:42:13;;;;;;;6.40;3.70;;;;;;;27.52;31.96;100477.26;107645;1260;72075;-83
2023/05/26 09:44:40;;;;;;;5.30;3.60;;;;;;;27.62;31.61;100477.30;107810;1257;72786;-82
2023/05/26 09:47:08;;;;;;;7.40;3.80;;;;;;;27.69;31.60;100470.71;107577;1257;61189;-83
2023/05/26 09:49:36;;;;;;;4.60;3.50;;;;;;;27.77;31.34;100470.35;107766;1257;61234;-83
2023/05/26 09:52:04;;;;;;;4.80;3.50;;;;;;;27.86;31.25;100470.37;107743;1262;73661;-83
2023/05/26 09:54:40;;;;;;;6.50;3.60;;;;;;;27.95;31.32;100468.42;107886;1257;72721;-81
2023/05/26 09:57:12;;;;;;;8.70;4.50;;;;;;;28.06;31.53;100462.89;107763;1258;72260;-82
2023/05/26 09:59:42;;;;;;;5.70;4.30;;;;;;;28.20;31.69;100460.98;107786;1258;61148;-82
2023/05/26 10:02:19;;;;;;;5.70;3.60;;;;;;;28.35;31.50;100454.59;107707;1257;60003;-82
2023/05/26 10:04:49;;;;;;;5.50;3.60;;;;;;;28.51;31.76;100450.65;107793;1257;65753;-82
2023/05/26 10:07:20;;;;;;;6.00;3.30;;;;;;;28.63;32.03;100452.39;107758;1257;62566;-82
2023/05/26 10:09:53;;;;;;;5.70;3.90;;;;;;;28.72;32.31;100451.65;107844;1257;62530;-82
2023/05/26 10:12:28;;;;;;;6.50;3.80;;;;;;;28.82;32.50;100447.01;107868;1257;61149;-83
2023/05/26 10:14:56;;;;;;;5.90;3.60;;;;;;;28.92;32.49;100443.52;107741;1257;60960;-82
2023/05/26 10:17:25;;;;;;;5.40;3.80;;;;;;;29.07;32.31;100440.73;107886;1257;65760;-85
2023/05/26 10:19:55;;;;;;;5.30;3.60;;;;;;;29.22;31.68;100442.76;107861;1257;62546;-83
2023/05/26 10:22:40;;;;;;;5.10;3.40;;;;;;;29.33;31.51;100440.77;107704;1257;63315;-84
2023/05/26 10:25:31;;;;;;;5.00;3.50;;;;;;;29.42;31.40;100443.94;107881;1258;61006;-84
2023/05/26 10:28:08;;;;;;;7.30;3.80;;;;;;;29.48;30.56;100443.48;107851;1257;61298;-82
2023/05/26 10:30:36;;;;;;;5.70;3.40;;;;;;;29.58;31.04;100438.17;107861;1257;64456;-83
2023/05/26 10:33:10;;;;;;;4.40;3.50;;;;;;;29.64;30.92;100439.77;107809;1257;64374;-81
2023/05/26 10:35:38;;;;;;;5.60;3.40;;;;;;;29.72;30.50;100437.59;107868;1257;64056;-82
2023/05/26 10:38:05;;;;;;;7.00;3.70;;;;;;;29.75;29.53;100434.07;107832;1257;61247;-81
2023/05/26 10:40:33;;;;;;;4.40;3.30;;;;;;;29.76;29.46;100429.51;107832;1257;61138;-82
2023/05/26 10:43:02;;;;;;;4.10;3.60;;;;;;;29.78;29.58;100424.31;107771;1257;65767;-82
2023/05/26 10:45:33;;;;;;;6.50;3.80;;;;;;;29.82;29.73;100423.13;107797;1257;63824;-82
2023/05/26 10:48:09;;;;;;;4.50;3.20;;;;;;;29.88;29.65;100425.11;107862;1257;62454;-81
2023/05/26 10:51:16;;;;;;;6.30;4.20;;;;;;;29.82;29.12;100426.28;107656;1257;61244;-84
2023/05/26 10:53:45;;;;;;;4.70;3.60;;;;;;;29.63;29.57;100424.89;107510;1262;60089;-83
2023/05/26 10:56:14;;;;;;;7.80;3.70;;;;;;;29.55;29.63;100424.55;107741;1257;65338;-85
2023/05/26 10:58:41;;;;;;;5.80;3.50;;;;;;;29.55;29.62;100425.26;107844;1258;63999;-83
2023/05/26 11:01:22;;;;;;;5.00;3.50;;;;;;;29.57;29.27;100424.16;107703;1259;62497;-83
2023/05/26 11:04:08;;;;;;;7.50;3.80;;;;;;;29.62;28.39;100422.55;107808;1259;61108;-81
2023/05/26 11:07:04;;;;;;;4.80;3.40;;;;;;;29.72;28.01;100422.83;107754;1259;61209;-80
2023/05/26 11:09:31;;;;;;;5.90;3.30;;;;;;;29.77;27.87;100421.64;107676;1259;65943;-82
2023/05/26 11:11:59;;;;;;;4.10;3.30;;;;;;;29.78;27.29;100419.45;107734;1263;62536;-82
2023/05/26 11:14:33;;;;;;;4.10;3.00;;;;;;;29.76;26.83;100418.17;107689;1260;63790;-83
2023/05/26 11:17:04;;;;;;;5.40;3.30;;;;;;;29.74;26.94;100417.30;107851;1257;61194;-81
2023/05/26 11:19:32;;;;;;;;;;;;;;;29.71;27.15;100415.96;107856;1257;61363;-81
2023/05/26 11:22:03;;;;;;;5.90;3.10;;;;;;;29.66;26.65;100419.50;107782;1257;65794;-82